createdAt,value
2022-10-02T00:12:25.052Z,2.40
2022-10-02T00:27:26.502Z,3.83
2022-10-02T00:42:27.960Z,3.27
2022-10-02T00:57:29.426Z,5.43
2022-10-02T01:12:30.939Z,4.07
2022-10-02T01:27:34.524Z,4.70
2022-10-02T01:42:39.573Z,4.87
2022-10-02T01:57:41.029Z,3.80
2022-10-02T02:12:42.488Z,2.73
2022-10-02T02:27:43.944Z,4.13
2022-10-02T02:42:45.403Z,3.27
2022-10-02T02:57:46.863Z,4.20
2022-10-02T03:12:48.349Z,3.17
2022-10-02T03:27:49.847Z,2.53
2022-10-02T03:42:51.327Z,2.37
2022-10-02T03:57:52.778Z,3.67
2022-10-02T04:12:54.236Z,3.27
2022-10-02T04:27:55.718Z,3.50
2022-10-02T04:42:57.209Z,2.93
2022-10-02T04:57:58.677Z,3.47
2022-10-02T05:13:00.128Z,3.67
2022-10-02T05:28:01.668Z,4.07
2022-10-02T05:43:03.169Z,7.97
2022-10-02T05:58:04.635Z,5.03
2022-10-02T06:13:06.125Z,6.97
2022-10-02T06:28:07.665Z,8.47
2022-10-02T06:43:09.190Z,10.40
2022-10-02T06:58:10.647Z,10.27
2022-10-02T07:13:12.096Z,8.67
2022-10-02T07:28:13.586Z,12.23
2022-10-02T07:43:15.066Z,9.13
2022-10-02T07:58:16.555Z,6.67
2022-10-02T08:13:17.997Z,6.10
2022-10-02T08:28:19.516Z,5.37
2022-10-02T08:43:21.048Z,7.30
2022-10-02T08:58:22.512Z,8.63
2022-10-02T09:13:24.023Z,7.90
2022-10-02T09:28:25.599Z,6.00
2022-10-02T09:43:27.135Z,5.90
2022-10-02T09:58:28.609Z,7.07
2022-10-02T10:13:30.067Z,6.73
2022-10-02T10:28:31.602Z,7.27
2022-10-02T10:43:33.095Z,5.33
2022-10-02T10:58:34.562Z,5.30
2022-10-02T11:13:36.042Z,7.17
2022-10-02T11:28:37.493Z,6.17
2022-10-02T11:43:43.788Z,6.30
2022-10-02T11:58:45.581Z,6.57
2022-10-02T12:13:47.038Z,4.80
2022-10-02T12:28:48.505Z,6.20
2022-10-02T12:43:49.981Z,7.37
2022-10-02T12:58:51.428Z,6.87
2022-10-02T13:13:52.890Z,4.20
2022-10-02T13:28:54.349Z,5.57
2022-10-02T13:43:58.527Z,7.33
2022-10-02T13:59:00.217Z,4.93
2022-10-02T14:14:03.561Z,4.40
2022-10-02T14:29:08.740Z,4.27
2022-10-02T14:44:10.485Z,4.33
2022-10-02T14:59:11.936Z,4.17
2022-10-02T15:14:13.405Z,5.17
2022-10-02T15:29:14.913Z,6.27
2022-10-02T15:44:16.429Z,4.27
2022-10-02T15:59:17.910Z,4.40
2022-10-02T16:14:19.380Z,7.67
2022-10-02T16:29:20.817Z,10.50
2022-10-02T16:44:22.261Z,7.30
2022-10-02T16:59:23.715Z,12.77
2022-10-02T17:14:25.174Z,5.87
2022-10-02T17:29:26.646Z,8.87
2022-10-02T17:44:28.138Z,6.47
2022-10-02T17:59:29.592Z,7.40
2022-10-02T18:14:31.054Z,7.10
2022-10-02T18:29:32.505Z,7.27
2022-10-02T18:44:33.982Z,3.27
2022-10-02T18:59:35.434Z,5.67
2022-10-02T19:14:36.887Z,3.60
2022-10-02T19:29:38.329Z,5.30
2022-10-02T19:44:39.781Z,4.07
2022-10-02T19:59:41.225Z,5.20
2022-10-02T20:14:42.704Z,4.23
2022-10-02T20:29:46.839Z,7.17
2022-10-02T20:44:48.609Z,5.83
2022-10-02T20:59:50.253Z,3.30
2022-10-02T21:14:51.763Z,3.40
2022-10-02T21:29:53.204Z,3.00
2022-10-02T21:44:54.682Z,5.03
2022-10-02T21:59:56.133Z,4.77
2022-10-02T22:14:57.577Z,4.70
2022-10-02T22:29:59.039Z,4.20
2022-10-02T22:45:00.569Z,5.70
2022-10-02T23:00:02.029Z,3.57
2022-10-02T23:15:03.487Z,3.27
2022-10-02T23:30:04.937Z,4.10
2022-10-02T23:45:06.410Z,3.80
